Latest Weather Observations for Blackall

IDQ60801

Issued at 11:05 pm EST Friday 28 November 2014 (issued every 30 minutes, with the page automatically refreshed every 10 minutes)

About weather observations | Map of weather stations | Latest weather observations for QLD | Other Formats
Station Details ID: 036034 Name: BLACKALL AIRPORT Lat: -24.43 Lon: 145.43 Height: 281.3 m
Data from the previous 72 hours. | See also: Recent months at Blackall
Date/Time
EST
Temp
°C
App
Temp
°C
Dew
Point
Rel
Hum
%
Delta-T
°C
Wind Press
QNH
hPa
Press
MSL
hPa
Rain
since 9 am
mm
Dir
 
Spd
km/h
Gust
km/h
Spd
kts
Gust
kts
28/11:00pm 21.5 20.1 16.9 75 2.8 NE 20 30 11 16 1015.2 1013.4 5.4
28/10:30pm 21.8 19.1 16.7 73 3.1 ENE 26 33 14 18 1015.5 1013.7 5.4
28/10:00pm 21.4 19.6 17.8 80 2.3 ENE 24 32 13 17 1015.7 1013.9 5.4
28/09:30pm 21.1 18.3 18.3 84 1.8 ENE 30 39 16 21 1015.8 1014.0 5.4
28/09:00pm 21.3 19.6 18.1 82 2.0 ENE 24 39 13 21 1015.7 1013.9 5.4
28/08:30pm 21.7 21.1 18.5 82 2.0 E 19 26 10 14 1015.6 1013.8 5.2
28/08:00pm 21.8 20.5 19.0 84 1.8 E 24 32 13 17 1015.2 1013.4 5.0
28/07:30pm 21.9 20.1 18.7 82 2.0 ESE 26 32 14 17 1015.1 1013.3 4.4
28/07:00pm 22.7 21.3 18.9 79 2.4 ESE 24 32 13 17 1014.2 1012.4 3.8
28/06:30pm 24.2 25.3 19.7 76 2.9 SE 13 20 7 11 1012.8 1011.1 3.2
28/06:05pm 23.5 20.1 16.8 66 4.2 S 30 48 16 26 1012.1 1010.3 0.8
28/06:00pm 24.9 20.6 15.5 56 5.8 S 32 48 17 26 1011.8 1010.0 0.0
28/05:57pm 27.3 22.9 14.0 44 8.0 S 30 44 16 24 1011.7 1009.9 0.0
28/05:30pm 32.7 29.5 11.8 28 12.4 N 20 30 11 16 1009.9 1008.2 0.0
28/05:00pm 34.3 29.5 10.2 23 14.1 N 26 35 14 19 1009.7 1008.0 0.0
28/04:30pm 35.2 31.7 8.9 20 15.1 ENE 17 19 9 10 1009.4 1007.6 0.0
28/04:00pm 35.4 33.3 8.3 19 15.5 NNE 9 17 5 9 1009.5 1007.8 0.0
28/03:30pm 35.6 33.0 7.6 18 15.8 E 11 17 6 9 1009.5 1007.8 0.0
28/03:00pm 36.0 31.9 8.0 18 16.0 NNE 19 32 10 17 1010.0 1008.3 0.0
28/02:30pm 36.5 32.5 8.4 18 16.1 N 19 30 10 16 1010.7 1008.9 0.0
28/02:00pm 35.1 30.7 8.8 20 15.1 ENE 22 33 12 18 1011.2 1009.4 0.0
28/01:30pm 36.3 33.8 9.8 20 15.5 N 13 24 7 13 1011.8 1010.0 0.0
28/01:00pm 35.4 32.5 9.7 21 15.0 NE 15 28 8 15 1012.4 1010.6 0.0
28/12:30pm 35.2 31.7 10.3 22 14.6 NE 19 28 10 15 1013.0 1011.3 0.0
28/12:00pm 35.6 33.5 11.3 23 14.5 NNE 13 24 7 13 1013.1 1011.4 0.0
28/11:30am 33.8 31.7 11.0 25 13.5 NE 13 24 7 13 1013.5 1011.8 0.0
28/11:00am 34.3 32.3 12.6 27 13.2 NE 15 26 8 14 1013.8 1012.1 0.0
28/10:30am 33.3 30.6 13.4 30 12.2 N 20 32 11 17 1014.0 1012.3 0.0
28/10:00am 32.5 29.7 13.2 31 11.7 N 20 33 11 18 1014.3 1012.5 0.0
28/09:30am 31.7 29.0 13.5 33 11.1 NNE 20 32 11 17 1014.4 1012.6 0.0
28/09:00am 30.7 27.5 13.0 33 10.6 NNE 22 32 12 17 1014.5 1012.7 0.0
28/08:30am 30.8 27.8 13.6 35 10.4 NNE 22 32 12 17 1014.3 1012.5 0.0
28/08:00am 30.0 27.2 13.3 36 10.1 NNE 20 30 11 16 1014.0 1012.3 0.0
28/07:30am 28.3 26.3 12.6 38 9.3 NNE 15 22 8 12 1014.0 1012.3 0.0
28/07:00am 27.2 25.7 12.0 38 8.9 NE 11 15 6 8 1013.9 1012.2 0.0
28/06:30am 26.3 25.2 12.0 41 8.3 NE 9 13 5 7 1013.7 1012.0 0.0
28/06:00am 25.9 24.3 12.7 44 7.7 NNE 13 17 7 9 1013.4 1011.7 0.0
28/05:30am 26.1 24.9 12.9 44 7.8 NNE 11 13 6 7 1013.2 1011.5 0.0
28/05:00am 25.0 26.1 13.5 48 6.8 CALM 0 0 0 0 1012.9 1011.2 0.0
28/04:30am 25.5 25.4 13.4 47 7.2 NE 6 7 3 4 1012.5 1010.7 0.0
28/04:00am 25.9 26.3 13.7 47 7.3 S 4 7 2 4 1012.4 1010.6 0.0
28/03:30am 26.2 25.9 13.3 45 7.7 S 7 9 4 5 1012.3 1010.5 0.0
28/03:00am 26.5 27.4 12.9 43 8.0 CALM 0 0 0 0 1012.1 1010.3 0.0
28/02:30am 26.8 26.3 12.8 42 8.3 WSW 7 11 4 6 1012.2 1010.4 0.0
28/02:00am 26.5 26.8 13.3 44 7.8 ENE 4 15 2 8 1012.1 1010.3 0.0
28/01:30am 26.5 26.4 13.3 44 7.8 E 6 7 3 4 1011.9 1010.1 0.0
28/01:00am 26.3 25.6 13.1 44 7.8 NE 9 13 5 7 1012.0 1010.2 0.0
28/12:30am 26.8 26.2 13.5 44 7.9 NE 9 11 5 6 1012.2 1010.4 0.0
28/12:00am 27.2 26.9 13.2 42 8.3 ESE 7 9 4 5 1012.2 1010.4 0.0
 
Date/Time
EST
Temp
°C
App
Temp
°C
Dew
Point
Rel
Hum
%
Delta-T
°C
Wind Press
QNH
hPa
Press
MSL
hPa
Rain
since 9 am
mm
Dir
 
Spd
km/h
Gust
km/h
Spd
kts
Gust
kts
27/11:30pm 27.6 27.3 13.2 41 8.6 E 7 11 4 6 1012.5 1010.7 0.0
27/11:00pm 28.0 27.3 13.1 39 8.9 E 9 13 5 7 1012.8 1011.1 0.0
27/10:30pm 28.3 27.5 13.0 39 9.1 E 9 11 5 6 1012.7 1011.0 0.0
27/10:00pm 29.0 28.2 12.8 36 9.7 E 9 13 5 7 1012.9 1011.2 0.0
27/09:30pm 29.4 28.4 12.3 34 10.1 E 9 13 5 7 1012.5 1010.7 0.0
27/09:00pm 30.1 28.0 12.5 34 10.5 E 15 20 8 11 1012.4 1010.6 0.0
27/08:30pm 30.3 27.2 12.2 33 10.7 E 20 26 11 14 1012.4 1010.6 0.0
27/08:00pm 30.3 26.6 12.7 34 10.5 E 24 35 13 19 1012.4 1010.6 0.0
27/07:30pm 31.0 25.7 12.4 32 11.1 E 32 44 17 24 1012.1 1010.3 0.0
27/07:00pm 32.8 29.6 11.9 28 12.5 SE 20 28 11 15 1011.6 1009.8 0.0
27/06:30pm 33.4 30.0 11.3 26 13.1 ESE 20 39 11 21 1011.2 1009.4 0.0
27/06:00pm 34.9 31.3 10.7 23 14.3 ESE 20 33 11 18 1010.6 1008.8 0.0
27/05:30pm 35.1 31.8 9.5 21 14.9 E 17 28 9 15 1010.2 1008.5 0.0
27/05:00pm 35.2 32.7 9.6 21 14.9 ESE 13 17 7 9 1010.1 1008.4 0.0
27/04:30pm 35.6 32.8 11.3 23 14.5 SE 17 20 9 11 1010.0 1008.3 0.0
27/04:00pm 35.7 31.8 10.7 22 14.8 E 22 32 12 17 1010.2 1008.5 0.0
27/03:30pm 36.6 34.0 7.6 17 16.5 ESE 11 20 6 11 1010.7 1008.9 0.0
27/03:00pm 35.9 32.4 8.7 19 15.7 ENE 17 24 9 13 1011.0 1009.2 0.0
27/02:30pm 35.9 32.6 9.4 20 15.4 E 17 28 9 15 1011.5 1009.7 0.0
27/02:00pm 35.5 33.1 12.5 25 14.0 E 17 20 9 11 1012.0 1010.2 0.0
27/01:30pm 34.7 31.8 12.4 26 13.5 ESE 19 26 10 14 1012.3 1010.5 0.0
27/01:00pm 34.6 31.5 11.7 25 13.7 SE 19 26 10 14 1012.7 1011.0 0.0
27/12:30pm 33.5 30.8 13.0 29 12.5 ENE 19 20 10 11 1013.0 1011.3 0.0
27/12:00pm 32.7 30.9 13.4 31 11.8 NNE 15 22 8 12 1013.4 1011.7 0.0
27/11:30am 32.3 31.1 14.0 33 11.2 NE 13 19 7 10 1013.8 1012.1 0.0
27/11:00am 32.3 30.1 14.9 35 10.8 NNE 20 28 11 15 1014.2 1012.4 0.0
27/10:30am 31.6 30.0 15.1 36 10.3 NE 17 24 9 13 1014.8 1013.0 0.0
27/10:00am 31.0 29.2 15.4 38 9.7 ENE 19 20 10 11 1015.1 1013.3 0.0
27/09:30am 29.7 27.3 15.4 42 8.9 NE 22 32 12 17 1015.3 1013.5 0.0
27/09:00am 29.2 27.5 17.1 48 7.7 NE 22 32 12 17 1015.4 1013.6 0.0
27/08:30am 27.9 26.2 17.1 51 6.8 NNE 22 32 12 17 1015.6 1013.8 0.0
27/08:00am 26.8 24.6 17.0 55 6.2 NE 24 33 13 18 1015.7 1013.9 0.0
27/07:30am 26.4 24.4 17.5 58 5.6 NE 24 32 13 17 1015.8 1014.0 0.0
27/07:00am 25.5 23.7 16.9 59 5.4 ENE 22 28 12 15 1015.3 1013.5 0.0
27/06:30am 24.6 23.7 16.8 62 4.9 ENE 17 19 9 10 1015.3 1013.5 0.0
27/06:00am 23.9 24.1 16.7 64 4.5 E 11 15 6 8 1015.2 1013.4 0.0
27/05:30am 23.8 23.9 16.6 64 4.5 E 11 15 6 8 1015.1 1013.3 0.0
27/05:00am 24.1 24.2 16.6 63 4.7 E 11 17 6 9 1014.6 1012.8 0.0
27/04:30am 24.3 23.7 16.6 62 4.8 ENE 15 19 8 10 1014.2 1012.4 0.0
27/04:00am 24.6 24.0 16.6 61 5.0 ENE 15 19 8 10 1013.6 1011.9 0.0
27/03:30am 24.9 23.7 16.1 58 5.4 ENE 17 22 9 12 1013.5 1011.8 0.0
27/03:00am 25.3 24.3 15.6 55 6.0 NE 15 20 8 11 1013.4 1011.7 0.0
27/02:30am 25.6 25.0 15.6 54 6.1 NNE 13 17 7 9 1013.5 1011.8 0.0
27/02:00am 26.1 24.9 16.1 54 6.2 E 17 22 9 12 1013.3 1011.6 0.0
27/01:30am 26.3 24.0 15.7 52 6.5 E 22 30 12 16 1012.9 1011.2 0.0
27/01:00am 26.7 26.1 15.7 51 6.8 SE 13 17 7 9 1012.7 1011.0 0.0
27/12:30am 27.0 26.4 15.7 50 7.0 ESE 13 19 7 10 1012.7 1011.0 0.0
27/12:00am 27.3 26.8 16.0 50 7.0 ESE 13 17 7 9 1013.2 1011.5 0.0
 
Date/Time
EST
Temp
°C
App
Temp
°C
Dew
Point
Rel
Hum
%
Delta-T
°C
Wind Press
QNH
hPa
Press
MSL
hPa
Rain
since 9 am
mm
Dir
 
Spd
km/h
Gust
km/h
Spd
kts
Gust
kts
26/11:30pm 27.5 26.6 15.8 48 7.3 ESE 15 22 8 12 1013.3 1011.6 0.0
26/11:00pm 27.4 25.8 16.1 50 7.0 E 19 26 10 14 1013.4 1011.7 0.0
26/10:30pm 27.5 24.5 15.8 48 7.3 E 26 33 14 18 1013.4 1011.7 0.0
26/10:00pm 27.3 24.1 15.3 48 7.4 E 26 35 14 19 1013.5 1011.8 0.0
26/09:30pm 27.4 24.0 14.8 46 7.7 E 26 35 14 19 1013.5 1011.8 0.0
26/09:00pm 27.5 23.9 14.2 44 8.0 E 26 41 14 22 1013.6 1011.9 0.0
26/08:30pm 28.1 24.7 14.7 44 8.2 E 26 33 14 18 1013.4 1011.7 0.0
26/08:00pm 28.8 25.9 16.0 45 8.0 E 26 37 14 20 1013.5 1011.8 0.0
26/07:30pm 30.2 28.4 15.5 41 9.2 ESE 19 24 10 13 1012.7 1011.0 0.0
26/07:00pm 30.3 28.7 16.0 42 9.0 ESE 19 28 10 15 1012.5 1010.7 0.0
26/06:30pm 31.5 29.3 15.9 39 9.8 SE 22 28 12 15 1012.4 1010.6 0.0
26/06:00pm 31.4 29.5 15.8 39 9.8 ESE 20 26 11 14 1012.1 1010.3 0.0
26/05:30pm 32.6 30.8 15.6 36 10.7 SSE 19 30 10 16 1011.7 1009.9 0.0
26/05:00pm 33.6 31.7 15.1 33 11.6 S 19 30 10 16 1011.2 1009.4 0.0
26/04:30pm 33.2 30.6 14.8 33 11.5 S 22 30 12 16 1010.9 1009.1 0.0
26/04:00pm 33.3 30.0 13.9 31 12.0 S 24 35 13 19 1010.9 1009.1 0.0
26/03:30pm 34.2 30.2 14.1 29 12.5 S 28 39 15 21 1010.8 1009.0 0.0
26/03:28pm 33.9 29.8 13.9 30 12.3 S 28 39 15 21 1010.8 1009.0 0.0
26/03:00pm 35.0 33.5 12.0 25 13.9 S 11 19 6 10 1010.9 1009.1 0.0
26/02:30pm 35.3 34.3 10.4 22 14.7 NE 6 15 3 8 1011.2 1009.4 0.0
26/02:00pm 35.1 34.3 10.9 23 14.4 E 6 11 3 6 1011.5 1009.7 0.0
26/01:30pm 35.2 33.6 10.3 22 14.6 ENE 9 17 5 9 1012.0 1010.2 0.0
26/01:00pm 36.3 35.8 12.5 24 14.5 E 7 32 4 17 1012.2 1010.4 0.0
26/12:30pm 35.7 35.0 12.0 24 14.3 NE 7 19 4 10 1012.6 1010.8 0.0
26/12:00pm 34.4 33.4 13.3 28 12.9 N 11 17 6 9 1013.3 1011.6 0.0
26/11:30am 34.6 34.7 14.5 30 12.5 NW 7 15 4 8 1014.0 1012.3 0.0
26/11:00am 33.3 31.3 13.9 31 11.9 NNE 17 28 9 15 1014.3 1012.5 0.0
26/10:30am 32.5 30.6 15.1 35 10.9 N 19 24 10 13 1014.6 1012.8 0.0
26/10:00am 31.2 30.3 14.8 37 10.2 N 13 26 7 14 1014.8 1013.0 0.0
26/09:30am 30.8 30.5 16.4 42 9.1 ENE 13 28 7 15 1014.7 1012.9 0.0
26/09:00am 29.1 28.3 16.0 45 8.2 NE 15 22 8 12 1014.9 1013.1 -
26/08:30am 28.2 26.5 15.8 47 7.7 ENE 19 24 10 13 1015.0 1013.2 -
26/08:00am 27.4 25.6 16.1 50 7.0 ENE 20 26 11 14 1014.8 1013.0 -
26/07:30am 27.8 26.3 16.4 50 7.1 ENE 19 24 10 13 1014.6 1012.8 -
26/07:00am 26.2 26.0 17.6 59 5.5 ESE 15 19 8 10 1014.7 1012.9 -
26/06:30am 25.0 25.6 17.7 64 4.6 SSE 11 15 6 8 1014.6 1012.8 -
26/06:00am 24.4 25.1 17.9 67 4.1 SE 11 17 6 9 1014.4 1012.6 -
26/05:30am 24.0 25.3 17.5 67 4.1 SE 7 11 4 6 1014.2 1012.4 -
26/05:00am 24.2 25.0 17.4 65 4.3 S 9 13 5 7 1013.8 1012.1 -
26/04:30am 24.2 24.4 17.7 67 4.1 S 13 17 7 9 1013.5 1011.8 -
26/04:00am 24.5 25.0 17.5 65 4.4 S 11 15 6 8 1013.3 1011.6 -
26/03:30am 24.7 24.8 17.4 64 4.6 SSW 13 19 7 10 1013.0 1011.3 -
26/03:00am 24.4 24.2 17.6 66 4.3 SW 15 20 8 11 1012.7 1011.0 0.0
26/02:30am 24.6 25.8 17.3 64 4.6 S 7 11 4 6 1012.2 1010.4 -
26/02:00am 24.3 24.6 17.1 64 4.5 ESE 11 17 6 9 1012.0 1010.2 -
26/01:30am 24.4 24.2 16.6 61 4.8 ESE 13 17 7 9 1012.1 1010.3 -
26/01:00am 24.7 23.6 16.4 60 5.1 E 17 22 9 12 1012.3 1010.5 -
26/12:30am 25.0 24.0 15.6 56 5.8 ESE 15 20 8 11 1012.6 1010.8 -
26/12:00am 25.5 24.5 15.5 54 6.1 ESE 15 19 8 10 1013.1 1011.4 -
 
Date/Time
EST
Temp
°C
App
Temp
°C
Dew
Point
Rel
Hum
%
Delta-T
°C
Wind Press
QNH
hPa
Press
MSL
hPa
Rain
since 9 am
mm
Dir
 
Spd
km/h
Gust
km/h
Spd
kts
Gust
kts
25/11:30pm 25.0 24.5 15.9 57 5.6 ESE 13 19 7 10 1013.4 1011.7 -

Other Formats:

Comma delimited format used in spreadsheet applications
http://www.bom.gov.au/fwo/IDQ60801/IDQ60801.95351.axf

JavaScript Object Notation format (JSON) in row-major order
http://www.bom.gov.au/fwo/IDQ60801/IDQ60801.95351.json